createdAt,value
2019-02-22T00:02:29.206Z,98218.47
2019-02-22T00:05:00.574Z,98222.27
2019-02-22T00:07:32.019Z,98226.30
2019-02-22T00:10:03.533Z,98219.53
2019-02-22T00:12:35.426Z,98228.86
2019-02-22T00:15:07.886Z,98224.17
2019-02-22T00:17:39.369Z,98219.63
2019-02-22T00:20:10.957Z,98221.74
2019-02-22T00:22:42.431Z,98222.89
2019-02-22T00:25:13.806Z,98215.55
2019-02-22T00:27:45.667Z,98215.86
2019-02-22T00:30:18.012Z,98207.28
2019-02-22T00:32:50.063Z,98210.25
2019-02-22T00:35:21.657Z,98206.35
2019-02-22T00:37:53.695Z,98205.30
2019-02-22T00:40:25.721Z,98207.50
2019-02-22T00:42:57.661Z,98203.53
2019-02-22T00:45:29.138Z,98200.88
2019-02-22T00:48:00.702Z,98200.79
2019-02-22T00:50:32.539Z,98198.75
2019-02-22T00:53:04.098Z,98195.34
2019-02-22T00:55:35.458Z,98190.96
2019-02-22T00:58:07.038Z,98196.45
2019-02-22T01:00:38.646Z,98190.48
2019-02-22T01:03:10.495Z,98196.45
2019-02-22T01:05:42.090Z,98190.44
2019-02-22T01:08:13.728Z,98198.05
2019-02-22T01:10:45.434Z,98200.30
2019-02-22T01:13:16.884Z,98195.39
2019-02-22T01:15:48.405Z,98194.86
2019-02-22T01:18:19.826Z,98195.61
2019-02-22T01:20:54.437Z,98191.64
2019-02-22T01:23:24.525Z,98181.28
2019-02-22T01:25:56.268Z,98187.22
2019-02-22T01:28:27.746Z,98190.53
2019-02-22T01:30:59.438Z,98198.58
2019-02-22T01:33:31.117Z,98186.59
2019-02-22T01:36:02.390Z,98191.37
2019-02-22T01:38:33.909Z,98188.27
2019-02-22T01:41:24.491Z,98184.95
2019-02-22T01:43:55.989Z,98182.44
2019-02-22T01:46:27.452Z,98185.94
2019-02-22T01:48:58.853Z,98187.44
2019-02-22T01:51:30.759Z,98187.34
2019-02-22T01:54:02.476Z,98180.45
2019-02-22T01:56:34.116Z,98186.41
2019-02-22T01:59:05.923Z,98192.16
2019-02-22T02:01:38.030Z,98192.22
2019-02-22T02:04:09.329Z,98186.69
2019-02-22T02:06:41.045Z,98197.07
2019-02-22T02:09:12.626Z,98201.84
2019-02-22T02:11:44.141Z,98198.75
2019-02-22T02:14:16.021Z,98194.86
2019-02-22T02:16:47.719Z,98196.31
2019-02-22T02:19:19.321Z,98196.17
2019-02-22T02:21:51.194Z,98191.39
2019-02-22T02:24:23.008Z,98186.78
2019-02-22T02:26:54.492Z,98187.83
2019-02-22T02:29:26.035Z,98187.07
2019-02-22T02:31:57.553Z,98189.33
2019-02-22T02:34:29.001Z,98197.38
2019-02-22T02:37:00.781Z,98201.06
2019-02-22T02:39:32.727Z,98206.10
2019-02-22T02:42:04.268Z,98209.03
2019-02-22T02:44:35.778Z,98208.14
2019-02-22T02:47:07.179Z,98203.24
2019-02-22T02:49:39.014Z,98210.41
2019-02-22T02:52:10.500Z,98221.95
2019-02-22T02:54:42.080Z,98217.18
2019-02-22T02:57:13.521Z,98213.69
2019-02-22T02:59:44.971Z,98211.57
2019-02-22T03:02:24.042Z,98211.13
2019-02-22T03:04:56.082Z,98220.38
2019-02-22T03:07:42.001Z,98218.08
2019-02-22T03:10:13.551Z,98215.95
2019-02-22T03:12:45.357Z,98223.38
2019-02-22T03:15:18.448Z,98222.19
2019-02-22T03:17:50.018Z,98226.88
2019-02-22T03:20:21.614Z,98228.91
2019-02-22T03:22:53.154Z,98222.37
2019-02-22T03:25:24.987Z,98225.33
2019-02-22T03:27:56.496Z,98233.37
2019-02-22T03:30:28.049Z,98225.23
2019-02-22T03:33:00.053Z,98227.90
2019-02-22T03:35:31.681Z,98225.02
2019-02-22T03:38:05.885Z,98230.72
2019-02-22T03:40:38.315Z,98218.87
2019-02-22T03:43:10.279Z,98229.21
2019-02-22T03:45:42.027Z,98237.48
2019-02-22T03:48:13.532Z,98244.24
2019-02-22T03:50:45.310Z,98243.66
2019-02-22T03:53:23.807Z,98240.37
2019-02-22T03:55:55.378Z,98248.06
2019-02-22T03:58:26.890Z,98256.56
2019-02-22T04:00:58.518Z,98258.70
2019-02-22T04:03:29.963Z,98258.55
2019-02-22T04:06:01.705Z,98261.59
2019-02-22T04:08:33.139Z,98257.55
2019-02-22T04:11:04.754Z,98250.34
2019-02-22T04:13:36.425Z,98250.67
2019-02-22T04:16:08.333Z,98242.52
2019-02-22T04:18:39.792Z,98241.60
2019-02-22T04:21:11.073Z,98242.89
2019-02-22T04:23:42.652Z,98251.31
2019-02-22T04:26:14.672Z,98256.42
2019-02-22T04:28:46.207Z,98259.03
2019-02-22T04:31:17.777Z,98263.24
2019-02-22T04:33:49.537Z,98269.66
2019-02-22T04:36:21.483Z,98270.91
2019-02-22T04:38:53.283Z,98261.84
2019-02-22T04:41:24.807Z,98266.53
2019-02-22T04:43:56.316Z,98270.75
2019-02-22T04:46:27.691Z,98269.82
2019-02-22T04:48:59.363Z,98269.17
2019-02-22T04:51:30.878Z,98272.55
2019-02-22T04:54:02.320Z,98270.25
2019-02-22T04:56:34.258Z,98268.80
2019-02-22T04:59:05.867Z,98266.12
2019-02-22T05:01:37.461Z,98263.78
2019-02-22T05:04:08.981Z,98268.04
2019-02-22T05:06:40.480Z,98265.42
2019-02-22T05:09:13.288Z,98268.71
2019-02-22T05:11:44.858Z,98267.88
2019-02-22T05:14:16.534Z,98266.02
2019-02-22T05:16:48.127Z,98265.89
2019-02-22T05:19:20.067Z,98268.59
2019-02-22T05:21:51.945Z,98256.63
2019-02-22T05:24:23.786Z,98260.08
2019-02-22T05:26:55.390Z,98258.31
2019-02-22T05:29:27.217Z,98264.38
2019-02-22T05:31:58.766Z,98262.69
2019-02-22T05:34:30.493Z,98270.87
2019-02-22T05:37:02.345Z,98271.72
2019-02-22T05:39:33.857Z,98274.14
2019-02-22T05:42:05.409Z,98269.80
2019-02-22T05:44:36.831Z,98285.25
2019-02-22T05:47:08.510Z,98278.95
2019-02-22T05:49:40.142Z,98279.84
2019-02-22T05:52:11.554Z,98284.98
2019-02-22T05:54:43.016Z,98282.45
2019-02-22T05:57:15.014Z,98287.14
2019-02-22T05:59:46.434Z,98288.88
2019-02-22T06:02:18.078Z,98299.36
2019-02-22T06:04:49.512Z,98295.27
2019-02-22T06:07:20.896Z,98293.98
2019-02-22T06:09:52.754Z,98292.42
2019-02-22T06:12:34.167Z,98303.55
2019-02-22T06:14:57.886Z,98298.93
2019-02-22T06:17:29.327Z,98302.02
2019-02-22T06:20:00.851Z,98302.02
2019-02-22T06:22:32.484Z,98309.49
2019-02-22T06:25:04.032Z,98315.91
2019-02-22T06:27:35.520Z,98313.23
2019-02-22T06:30:07.443Z,98318.84
2019-02-22T06:32:41.955Z,98328.28
2019-02-22T06:35:12.476Z,98328.23
2019-02-22T06:37:43.930Z,98330.05
2019-02-22T06:40:15.605Z,98333.02
2019-02-22T06:42:47.341Z,98340.45
2019-02-22T06:45:19.870Z,98331.86
2019-02-22T06:47:51.166Z,98338.80
2019-02-22T06:50:33.385Z,98336.28
2019-02-22T06:52:56.250Z,98333.52
2019-02-22T06:55:27.646Z,98343.80
2019-02-22T06:58:00.111Z,98349.77
2019-02-22T07:00:48.067Z,98348.53
2019-02-22T07:03:20.693Z,98360.67
2019-02-22T07:05:52.675Z,98369.26
2019-02-22T07:08:24.358Z,98372.31
2019-02-22T07:11:17.456Z,98373.59
2019-02-22T07:13:49.082Z,98383.52
2019-02-22T07:16:20.661Z,98389.62
2019-02-22T07:18:52.256Z,98392.20
2019-02-22T07:21:23.858Z,98396.22
2019-02-22T07:23:55.219Z,98394.53
2019-02-22T07:26:26.528Z,98401.93
2019-02-22T07:28:58.067Z,98409.20
2019-02-22T07:31:29.530Z,98414.42
2019-02-22T07:34:01.062Z,98408.44
2019-02-22T07:36:32.838Z,98414.91
2019-02-22T07:39:05.635Z,98419.16
2019-02-22T07:41:37.198Z,98422.30
2019-02-22T07:44:09.194Z,98422.38
2019-02-22T07:46:41.001Z,98421.63
2019-02-22T07:49:21.817Z,98432.75
2019-02-22T07:51:53.211Z,98434.20
2019-02-22T07:54:24.641Z,98434.38
2019-02-22T07:56:57.061Z,98441.04
2019-02-22T07:59:28.531Z,98437.19
2019-02-22T08:02:00.119Z,98452.26
2019-02-22T08:04:31.608Z,98457.56
2019-02-22T08:07:02.861Z,98457.61
2019-02-22T08:09:34.293Z,98464.67
2019-02-22T08:12:05.714Z,98464.67
2019-02-22T08:14:37.176Z,98468.53
2019-02-22T08:17:08.671Z,98469.91
2019-02-22T08:19:40.267Z,98469.50
2019-02-22T08:22:11.769Z,98474.24
2019-02-22T08:24:43.211Z,98475.89
2019-02-22T08:27:14.685Z,98479.63
2019-02-22T08:29:46.099Z,98479.83
2019-02-22T08:32:17.441Z,98488.88
2019-02-22T08:34:48.883Z,98486.66
2019-02-22T08:37:20.325Z,98489.31
2019-02-22T08:39:58.470Z,98492.81
2019-02-22T08:42:25.113Z,98482.48
2019-02-22T08:44:56.796Z,98486.55
2019-02-22T08:47:28.193Z,98482.29
2019-02-22T08:49:59.666Z,98486.63
2019-02-22T08:52:31.324Z,98489.74
2019-02-22T08:55:02.804Z,98480.39
2019-02-22T08:57:35.298Z,98484.52
2019-02-22T09:00:08.910Z,98485.03
2019-02-22T09:02:40.688Z,98485.55
2019-02-22T09:05:12.218Z,98487.97
2019-02-22T09:07:44.395Z,98493.79
2019-02-22T09:10:15.810Z,98506.71
2019-02-22T09:12:47.416Z,98497.84
2019-02-22T09:15:18.900Z,98510.84
2019-02-22T09:17:50.629Z,98517.75
2019-02-22T09:20:22.216Z,98497.79
2019-02-22T09:22:53.727Z,98498.91
2019-02-22T09:25:25.118Z,98494.45
2019-02-22T09:27:56.468Z,98497.07
2019-02-22T09:30:28.694Z,98506.91
2019-02-22T09:33:00.169Z,98527.77
2019-02-22T09:35:31.773Z,98517.30
2019-02-22T09:38:03.199Z,98517.70
2019-02-22T09:40:35.017Z,98512.33
2019-02-22T09:43:06.598Z,98516.52
2019-02-22T09:45:38.258Z,98522.66
2019-02-22T09:48:10.179Z,98527.37
2019-02-22T09:50:41.952Z,98539.36
2019-02-22T09:53:13.402Z,98540.38
2019-02-22T09:55:44.771Z,98545.27
2019-02-22T09:58:16.401Z,98543.63
2019-02-22T10:00:47.833Z,98556.52
2019-02-22T10:03:20.307Z,98551.08
2019-02-22T10:05:52.034Z,98553.42
2019-02-22T10:08:24.416Z,98572.25
2019-02-22T10:10:55.867Z,98573.28
2019-02-22T10:13:27.456Z,98583.37
2019-02-22T10:15:58.940Z,98583.41
2019-02-22T10:18:30.331Z,98582.41
2019-02-22T10:21:01.781Z,98578.61
2019-02-22T10:23:33.570Z,98574.23
2019-02-22T10:26:05.384Z,98578.03
2019-02-22T10:28:37.127Z,98577.91
2019-02-22T10:31:08.485Z,98573.55
2019-02-22T10:33:39.818Z,98578.81
2019-02-22T10:36:11.660Z,98585.89
2019-02-22T10:38:43.077Z,98588.57
2019-02-22T10:41:15.143Z,98593.69
2019-02-22T10:43:46.660Z,98591.07
2019-02-22T10:46:18.152Z,98598.33
2019-02-22T10:48:49.676Z,98603.29
2019-02-22T10:51:21.373Z,98594.71
2019-02-22T10:53:52.970Z,98601.67
2019-02-22T10:56:24.873Z,98602.34
2019-02-22T10:58:59.936Z,98594.66
2019-02-22T11:01:31.414Z,98599.63
2019-02-22T11:04:02.898Z,98601.30
2019-02-22T11:06:34.971Z,98591.39
2019-02-22T11:09:08.628Z,98600.28
2019-02-22T11:11:40.545Z,98607.42
2019-02-22T11:14:12.130Z,98597.30
2019-02-22T11:16:43.670Z,98587.64
2019-02-22T11:19:15.050Z,98587.28
2019-02-22T11:21:47.140Z,98587.39
2019-02-22T11:24:20.086Z,98591.90
2019-02-22T11:26:52.415Z,98586.55
2019-02-22T11:29:23.860Z,98583.47
2019-02-22T11:31:55.214Z,98586.53
2019-02-22T11:34:27.441Z,98597.02
2019-02-22T11:36:59.005Z,98601.35
2019-02-22T11:39:30.441Z,98596.07
2019-02-22T11:42:02.197Z,98598.42
2019-02-22T11:44:40.190Z,98600.84
2019-02-22T11:47:07.636Z,98608.61
2019-02-22T11:49:39.065Z,98611.79
2019-02-22T11:52:10.868Z,98608.84
2019-02-22T11:54:42.362Z,98613.32
2019-02-22T11:57:16.389Z,98608.39
2019-02-22T11:59:48.080Z,98604.42
2019-02-22T12:02:19.530Z,98606.52
2019-02-22T12:04:51.115Z,98611.28
2019-02-22T12:07:22.917Z,98611.09
2019-02-22T12:09:54.465Z,98625.55
2019-02-22T12:12:25.957Z,98620.77
2019-02-22T12:14:58.383Z,98630.59
2019-02-22T12:17:30.310Z,98632.76
2019-02-22T12:20:01.677Z,98630.82
2019-02-22T12:22:33.689Z,98632.00
2019-02-22T12:25:05.703Z,98626.95
2019-02-22T12:27:38.151Z,98620.96
2019-02-22T12:30:12.675Z,98615.52
2019-02-22T12:32:44.244Z,98617.53
2019-02-22T12:35:15.986Z,98621.96
2019-02-22T12:37:47.326Z,98619.61
2019-02-22T12:40:18.929Z,98625.16
2019-02-22T12:42:50.944Z,98624.91
2019-02-22T12:45:22.463Z,98627.16
2019-02-22T12:47:53.936Z,98627.95
2019-02-22T12:50:25.602Z,98628.90
2019-02-22T12:52:57.382Z,98627.30
2019-02-22T12:55:28.737Z,98636.64
2019-02-22T12:58:00.273Z,98645.56
2019-02-22T13:00:32.027Z,98649.16
2019-02-22T13:03:03.676Z,98659.33
2019-02-22T13:05:35.107Z,98657.76
2019-02-22T13:08:07.099Z,98651.30
2019-02-22T13:10:38.362Z,98664.42
2019-02-22T13:13:10.299Z,98663.29
2019-02-22T13:15:41.649Z,98667.67
2019-02-22T13:18:13.387Z,98668.52
2019-02-22T13:20:44.803Z,98672.21
2019-02-22T13:25:44.731Z,98679.88
2019-02-22T13:28:16.157Z,98679.80
2019-02-22T13:30:47.725Z,98677.70
2019-02-22T13:33:19.241Z,98684.96
2019-02-22T13:35:50.550Z,98689.45
2019-02-22T13:38:22.465Z,98685.11
2019-02-22T13:40:53.936Z,98682.16
2019-02-22T13:43:25.770Z,98685.84
2019-02-22T13:45:57.878Z,98690.37
2019-02-22T13:48:29.214Z,98683.39
2019-02-22T13:51:01.114Z,98697.81
2019-02-22T13:53:32.635Z,98699.61
2019-02-22T13:56:04.173Z,98694.36
2019-02-22T13:58:35.542Z,98696.56
2019-02-22T14:01:07.496Z,98695.75
2019-02-22T14:03:39.380Z,98697.22
2019-02-22T14:06:10.758Z,98703.23
2019-02-22T14:08:42.620Z,98706.09
2019-02-22T14:11:14.447Z,98707.05
2019-02-22T14:13:45.847Z,98709.48
2019-02-22T14:16:17.295Z,98700.86
2019-02-22T14:18:48.793Z,98698.34
2019-02-22T14:21:20.145Z,98709.41
2019-02-22T14:23:51.483Z,98706.26
2019-02-22T14:26:23.344Z,98708.18
2019-02-22T14:28:54.678Z,98699.63
2019-02-22T14:31:26.382Z,98709.94
2019-02-22T14:33:57.836Z,98711.00
2019-02-22T14:36:29.494Z,98712.91
2019-02-22T14:39:00.999Z,98717.42
2019-02-22T14:41:33.949Z,98714.55
2019-02-22T14:44:05.935Z,98712.63
2019-02-22T14:46:37.232Z,98719.16
2019-02-22T14:49:08.964Z,98710.95
2019-02-22T14:51:40.304Z,98713.63
2019-02-22T14:54:11.578Z,98715.32
2019-02-22T14:56:43.001Z,98718.97
2019-02-22T14:59:14.504Z,98719.31
2019-02-22T15:01:46.388Z,98725.53
2019-02-22T15:04:18.697Z,98730.02
2019-02-22T15:06:51.180Z,98728.42
2019-02-22T15:09:22.651Z,98728.20
2019-02-22T15:11:54.239Z,98723.92
2019-02-22T15:14:26.513Z,98732.02
2019-02-22T15:17:15.046Z,98734.02
2019-02-22T15:19:46.416Z,98736.30
2019-02-22T15:22:17.893Z,98740.94
2019-02-22T15:24:49.257Z,98746.59
2019-02-22T15:27:20.877Z,98734.77
2019-02-22T15:29:52.234Z,98743.82
2019-02-22T15:32:23.575Z,98744.27
2019-02-22T15:34:54.959Z,98749.88
2019-02-22T15:37:27.553Z,98744.46
2019-02-22T15:39:58.908Z,98753.88
2019-02-22T15:42:30.438Z,98755.55
2019-02-22T15:45:02.099Z,98757.63
2019-02-22T15:47:35.659Z,98755.38
2019-02-22T15:50:10.004Z,98763.72
2019-02-22T15:52:41.786Z,98757.63
2019-02-22T15:55:14.503Z,98755.71
2019-02-22T15:57:46.440Z,98756.67
2019-02-22T16:00:22.967Z,98762.75
2019-02-22T16:02:54.713Z,98767.33
2019-02-22T16:05:34.488Z,98767.05
2019-02-22T16:08:07.708Z,98762.97
2019-02-22T16:10:39.420Z,98763.27
2019-02-22T16:13:11.577Z,98765.31
2019-02-22T16:15:43.044Z,98776.59
2019-02-22T16:18:17.204Z,98776.86
2019-02-22T16:20:48.531Z,98775.04
2019-02-22T16:23:20.157Z,98777.34
2019-02-22T16:25:51.790Z,98777.66
2019-02-22T16:28:23.240Z,98780.77
2019-02-22T16:30:54.724Z,98777.35
2019-02-22T16:33:26.112Z,98789.39
2019-02-22T16:35:57.591Z,98787.66
2019-02-22T16:38:29.016Z,98785.59
2019-02-22T16:41:00.734Z,98792.50
2019-02-22T16:43:32.336Z,98793.67
2019-02-22T16:46:04.221Z,98800.88
2019-02-22T16:48:35.620Z,98795.19
2019-02-22T16:51:07.158Z,98802.29
2019-02-22T16:53:38.449Z,98802.69
2019-02-22T16:56:09.960Z,98815.22
2019-02-22T16:58:41.626Z,98816.27
2019-02-22T17:01:13.077Z,98820.64
2019-02-22T17:03:44.432Z,98820.73
2019-02-22T17:06:15.924Z,98820.33
2019-02-22T17:08:47.720Z,98826.92
2019-02-22T17:11:19.042Z,98818.31
2019-02-22T17:13:50.483Z,98824.02
2019-02-22T17:16:21.995Z,98827.28
2019-02-22T17:19:11.644Z,98839.60
2019-02-22T17:21:43.420Z,98853.84
2019-02-22T17:24:15.415Z,98862.39
2019-02-22T17:26:46.843Z,98858.64
2019-02-22T17:29:18.508Z,98853.18
2019-02-22T17:31:49.906Z,98856.57
2019-02-22T17:34:21.200Z,98856.16
2019-02-22T17:36:52.913Z,98866.75
2019-02-22T17:39:24.145Z,98871.16
2019-02-22T17:41:55.434Z,98866.63
2019-02-22T17:44:26.796Z,98869.98
2019-02-22T17:46:58.276Z,98872.65
2019-02-22T17:49:29.659Z,98873.63
2019-02-22T17:52:01.108Z,98873.91
2019-02-22T17:54:33.586Z,98886.23
2019-02-22T17:57:05.155Z,98886.66
2019-02-22T17:59:36.373Z,98882.32
2019-02-22T18:02:07.793Z,98887.52
2019-02-22T18:04:39.159Z,98888.41
2019-02-22T18:07:10.528Z,98887.27
2019-02-22T18:09:41.914Z,98897.18
2019-02-22T18:12:13.183Z,98905.52
2019-02-22T18:14:44.654Z,98911.66
2019-02-22T18:17:15.992Z,98919.07
2019-02-22T18:19:47.697Z,98910.27
2019-02-22T18:22:25.810Z,98915.73
2019-02-22T18:24:52.397Z,98918.80
2019-02-22T18:27:23.908Z,98920.19
2019-02-22T18:29:55.593Z,98924.83
2019-02-22T18:32:27.289Z,98926.37
2019-02-22T18:34:58.636Z,98934.58
2019-02-22T18:37:30.009Z,98936.36
2019-02-22T18:40:01.466Z,98942.77
2019-02-22T18:42:32.962Z,98947.97
2019-02-22T18:45:04.620Z,98952.00
2019-02-22T18:47:36.052Z,98939.23
2019-02-22T18:50:09.108Z,98943.95
2019-02-22T18:52:40.501Z,98945.45
2019-02-22T18:55:12.031Z,98945.83
2019-02-22T18:57:43.429Z,98953.19
2019-02-22T19:00:15.342Z,98955.69
2019-02-22T19:02:46.936Z,98971.81
2019-02-22T19:05:18.826Z,98980.84
2019-02-22T19:07:50.371Z,98981.26
2019-02-22T19:10:22.247Z,98978.80
2019-02-22T19:12:53.721Z,98991.98
2019-02-22T19:15:25.331Z,98992.84
2019-02-22T19:17:57.356Z,99002.45
2019-02-22T19:20:29.127Z,99002.63
2019-02-22T19:23:00.491Z,99008.52
2019-02-22T19:25:31.921Z,99012.52
2019-02-22T19:28:03.280Z,99009.05
2019-02-22T19:30:34.950Z,99012.34
2019-02-22T19:33:06.410Z,99024.50
2019-02-22T19:35:37.747Z,99020.55
2019-02-22T19:38:09.628Z,99022.95
2019-02-22T19:40:41.026Z,99023.42
2019-02-22T19:43:12.689Z,99021.79
2019-02-22T19:45:44.523Z,99020.05
2019-02-22T19:48:15.915Z,99027.80
2019-02-22T19:50:47.258Z,99022.88
2019-02-22T19:53:21.453Z,99025.31
2019-02-22T19:55:52.674Z,99024.58
2019-02-22T19:58:24.255Z,99018.49
2019-02-22T20:00:56.177Z,99034.73
2019-02-22T20:03:27.478Z,99038.14
2019-02-22T20:05:59.500Z,99033.80
2019-02-22T20:08:30.899Z,99041.08
2019-02-22T20:11:02.814Z,99048.13
2019-02-22T20:13:37.492Z,99052.53
2019-02-22T20:16:09.296Z,99062.22
2019-02-22T20:18:40.522Z,99073.25
2019-02-22T20:21:12.058Z,99074.77
2019-02-22T20:23:43.484Z,99076.45
2019-02-22T20:26:15.560Z,99080.09
2019-02-22T20:28:47.271Z,99081.59
2019-02-22T20:31:20.538Z,99091.81
2019-02-22T20:33:52.134Z,99103.56
2019-02-22T20:36:28.381Z,99105.34
2019-02-22T20:38:56.632Z,99114.16
2019-02-22T20:41:28.007Z,99110.24
2019-02-22T20:43:59.781Z,99112.88
2019-02-22T20:46:31.240Z,99119.55
2019-02-22T20:49:02.547Z,99114.98
2019-02-22T20:51:33.978Z,99107.20
2019-02-22T20:54:05.447Z,99120.58
2019-02-22T20:56:37.722Z,99117.93
2019-02-22T20:59:09.562Z,99123.06
2019-02-22T21:01:40.997Z,99117.39
2019-02-22T21:04:12.801Z,99120.20
2019-02-22T21:06:44.250Z,99124.59
2019-02-22T21:09:15.672Z,99124.12
2019-02-22T21:11:47.232Z,99118.38
2019-02-22T21:14:20.082Z,99126.81
2019-02-22T21:16:51.514Z,99132.72
2019-02-22T21:19:23.084Z,99135.09
2019-02-22T21:21:54.713Z,99132.12
2019-02-22T21:24:26.136Z,99132.84
2019-02-22T21:26:57.734Z,99143.30
2019-02-22T21:29:29.227Z,99151.78
2019-02-22T21:32:00.629Z,99153.81
2019-02-22T21:34:32.235Z,99145.97
2019-02-22T21:37:04.062Z,99150.73
2019-02-22T21:39:36.813Z,99154.42
2019-02-22T21:42:08.208Z,99163.22
2019-02-22T21:44:39.538Z,99169.12
2019-02-22T21:47:10.897Z,99174.47
2019-02-22T21:49:42.538Z,99180.36
2019-02-22T21:52:13.996Z,99173.94
2019-02-22T21:54:45.356Z,99187.14
2019-02-22T21:57:16.763Z,99181.75
2019-02-22T21:59:48.282Z,99173.00
2019-02-22T22:02:20.105Z,99168.45
2019-02-22T22:04:51.387Z,99170.91
2019-02-22T22:07:22.707Z,99169.63
2019-02-22T22:09:54.109Z,99176.56
2019-02-22T22:12:25.549Z,99168.68
2019-02-22T22:14:57.222Z,99163.07
2019-02-22T22:17:28.820Z,99161.55
2019-02-22T22:20:00.376Z,99162.03
2019-02-22T22:22:32.215Z,99169.95
2019-02-22T22:25:03.707Z,99176.31
2019-02-22T22:27:37.515Z,99175.42
2019-02-22T22:30:10.360Z,99170.81
2019-02-22T22:32:42.977Z,99172.55
2019-02-22T22:35:14.519Z,99189.48
2019-02-22T22:37:46.462Z,99194.25
2019-02-22T22:40:17.980Z,99208.59
2019-02-22T22:42:49.431Z,99215.33
2019-02-22T22:45:21.716Z,99221.43
2019-02-22T22:47:53.316Z,99216.77
2019-02-22T22:50:25.090Z,99219.53
2019-02-22T22:52:56.702Z,99215.31
2019-02-22T22:55:28.137Z,99224.23
2019-02-22T22:57:59.733Z,99227.24
2019-02-22T23:01:14.978Z,99235.33
2019-02-22T23:03:46.931Z,99230.78
2019-02-22T23:06:19.200Z,99220.89
2019-02-22T23:08:50.785Z,99203.48
2019-02-22T23:11:22.398Z,99203.11
2019-02-22T23:13:53.954Z,99206.92
2019-02-22T23:16:25.690Z,99208.57
2019-02-22T23:19:01.920Z,99222.34
2019-02-22T23:21:31.585Z,99217.28
2019-02-22T23:24:03.248Z,99211.55
2019-02-22T23:26:34.834Z,99219.83
2019-02-22T23:29:06.363Z,99221.69
2019-02-22T23:31:38.209Z,99226.35
2019-02-22T23:34:09.642Z,99227.92
2019-02-22T23:36:41.589Z,99231.13
2019-02-22T23:39:13.502Z,99216.77
2019-02-22T23:41:44.923Z,99219.66
2019-02-22T23:44:16.378Z,99224.73
2019-02-22T23:46:47.819Z,99223.91
2019-02-22T23:49:19.363Z,99229.18
2019-02-22T23:51:51.059Z,99234.65
2019-02-22T23:54:29.169Z,99231.52
2019-02-22T23:57:00.667Z,99232.00
2019-02-22T23:59:32.825Z,99235.18
